Thornburg, Iowa
Current Conditions -  °F | °C
As of 12:15 PM on Thursday 27 Nov 2014 (Local Time) from KOOA Reporting Station
Clear Clear  
Wind Chill: -6°   Ceiling: Unl
Heat Index:   Visibility: 10mi
Dew Point:   Wind: 12mph
Humidity: 71%   Direction: 290°WNW
Pressure: 30.51"   Gusts: NA
Location:  41.45°N, 92.34°W
Report Text: KOOA 271815Z AUTO 29010KT 10SM CLR M13/M17 A3051 RMK AO2 T11271169
Loading
Personal Weather Stations






























Interactive Weather Map New forecast layout! Learn more

10-Day Weather Forecast

Advertisements
Track Severe Weather on mobile